createdAt,value
2017-08-08T00:00:20.728Z,9.90
2017-08-08T00:02:49.319Z,9.55
2017-08-08T00:05:18.904Z,9.60
2017-08-08T00:07:46.518Z,10.18
2017-08-08T00:10:14.138Z,9.77
2017-08-08T00:12:41.770Z,10.27
2017-08-08T00:15:09.370Z,9.98
2017-08-08T00:17:37.024Z,10.65
2017-08-08T00:20:04.649Z,10.80
2017-08-08T00:22:32.272Z,10.95
2017-08-08T00:24:59.900Z,9.75
2017-08-08T00:27:27.515Z,10.65
2017-08-08T00:29:55.175Z,9.43
2017-08-08T00:32:22.785Z,10.55
2017-08-08T00:34:50.397Z,10.10
2017-08-08T00:37:18.027Z,11.02
2017-08-08T00:39:46.627Z,10.32
2017-08-08T00:42:16.177Z,10.95
2017-08-08T00:44:44.788Z,10.05
2017-08-08T00:47:12.424Z,11.90
2017-08-08T00:49:40.057Z,10.52
2017-08-08T00:52:07.667Z,11.50
2017-08-08T00:54:35.347Z,11.00
2017-08-08T00:57:02.969Z,10.70
2017-08-08T00:59:30.598Z,11.63
2017-08-08T01:01:58.200Z,9.27
2017-08-08T01:04:34.137Z,11.25
2017-08-08T01:07:01.655Z,11.02
2017-08-08T01:09:29.178Z,11.85
2017-08-08T01:11:56.684Z,11.55
2017-08-08T01:14:24.182Z,10.98
2017-08-08T01:16:51.680Z,12.15
2017-08-08T01:19:19.180Z,10.45
2017-08-08T01:21:46.680Z,11.60
2017-08-08T01:24:14.204Z,10.63
2017-08-08T01:26:41.736Z,11.10
2017-08-08T01:29:09.241Z,11.88
2017-08-08T01:31:36.744Z,11.40
2017-08-08T01:34:04.244Z,11.10
2017-08-08T01:36:31.774Z,11.00
2017-08-08T01:38:59.280Z,10.32
2017-08-08T01:41:26.785Z,11.82
2017-08-08T01:43:54.317Z,10.65
2017-08-08T01:46:21.825Z,12.13
2017-08-08T01:48:49.345Z,10.90
2017-08-08T01:51:16.898Z,12.25
2017-08-08T01:53:44.397Z,11.98
2017-08-08T01:56:11.898Z,12.75
2017-08-08T01:58:39.405Z,14.57
2017-08-08T02:01:06.930Z,13.23
2017-08-08T02:03:34.441Z,15.23
2017-08-08T02:06:01.953Z,14.45
2017-08-08T02:08:29.484Z,12.70
2017-08-08T02:10:56.996Z,13.80
2017-08-08T02:13:24.529Z,12.18
2017-08-08T02:15:52.048Z,12.40
2017-08-08T02:18:19.561Z,14.10
2017-08-08T02:20:47.073Z,15.68
2017-08-08T02:23:15.199Z,15.15
2017-08-08T02:25:42.733Z,14.32
2017-08-08T02:28:10.248Z,12.10
2017-08-08T02:30:37.756Z,13.05
2017-08-08T02:33:05.273Z,13.00
2017-08-08T02:35:32.778Z,15.32
2017-08-08T02:38:00.300Z,15.88
2017-08-08T02:40:27.808Z,14.75
2017-08-08T02:42:55.310Z,14.52
2017-08-08T02:45:22.820Z,14.73
2017-08-08T02:47:50.325Z,16.15
2017-08-08T02:50:17.852Z,15.10
2017-08-08T02:52:45.355Z,13.85
2017-08-08T02:55:12.852Z,12.35
2017-08-08T02:57:40.344Z,12.60
2017-08-08T03:00:07.861Z,12.40
2017-08-08T03:02:35.384Z,13.48
2017-08-08T03:05:02.914Z,15.70
2017-08-08T03:07:30.430Z,14.65
2017-08-08T03:09:57.933Z,15.35
2017-08-08T03:12:25.441Z,14.18
2017-08-08T03:14:52.982Z,14.90
2017-08-08T03:17:20.490Z,13.70
2017-08-08T03:19:47.999Z,13.60
2017-08-08T03:22:15.501Z,15.13
2017-08-08T03:24:43.017Z,14.98
2017-08-08T03:27:11.530Z,15.02
2017-08-08T03:29:38.840Z,14.40
2017-08-08T03:32:06.347Z,14.57
2017-08-08T03:34:33.847Z,13.95
2017-08-08T03:37:01.364Z,13.43
2017-08-08T03:39:28.898Z,14.57
2017-08-08T03:41:56.405Z,15.40
2017-08-08T03:44:23.904Z,13.80
2017-08-08T03:46:51.415Z,14.32
2017-08-08T03:49:18.933Z,13.88
2017-08-08T03:51:46.460Z,15.30
2017-08-08T03:54:13.988Z,14.85
2017-08-08T03:56:41.502Z,15.00
2017-08-08T03:59:09.016Z,15.65
2017-08-08T04:01:36.522Z,16.08
2017-08-08T04:04:04.054Z,13.65
2017-08-08T04:06:32.535Z,14.80
2017-08-08T04:09:00.051Z,15.07
2017-08-08T04:11:27.616Z,14.82
2017-08-08T04:13:55.229Z,14.00
2017-08-08T04:16:22.763Z,13.40
2017-08-08T04:18:50.264Z,12.60
2017-08-08T04:21:17.765Z,12.55
2017-08-08T04:23:45.273Z,13.40
2017-08-08T04:26:12.770Z,13.20
2017-08-08T04:28:40.294Z,14.18
2017-08-08T04:31:07.825Z,13.30
2017-08-08T04:33:35.326Z,13.20
2017-08-08T04:36:02.829Z,12.32
2017-08-08T04:38:30.328Z,12.50
2017-08-08T04:40:57.849Z,13.60
2017-08-08T04:43:25.354Z,12.18
2017-08-08T04:45:52.869Z,12.52
2017-08-08T04:48:20.372Z,11.82
2017-08-08T04:50:47.896Z,10.88
2017-08-08T04:53:15.412Z,12.25
2017-08-08T04:55:42.906Z,12.15
2017-08-08T04:58:10.404Z,10.23
2017-08-08T05:00:37.913Z,11.30
2017-08-08T05:03:05.417Z,11.15
2017-08-08T05:05:32.940Z,11.05
2017-08-08T05:08:00.437Z,10.48
2017-08-08T05:10:27.934Z,10.07
2017-08-08T05:12:55.430Z,9.30
2017-08-08T05:15:22.924Z,9.60
2017-08-08T05:17:50.436Z,9.23
2017-08-08T05:20:17.643Z,8.17
2017-08-08T05:22:44.840Z,9.37
2017-08-08T05:25:12.053Z,9.50
2017-08-08T05:27:39.261Z,8.03
2017-08-08T05:30:06.476Z,8.40
2017-08-08T05:32:33.685Z,6.80
2017-08-08T05:35:00.891Z,8.20
2017-08-08T05:37:28.377Z,7.70
2017-08-08T05:39:55.869Z,7.60
2017-08-08T05:42:24.360Z,7.37
2017-08-08T05:44:51.854Z,6.87
2017-08-08T05:47:19.350Z,6.97
2017-08-08T05:49:46.546Z,6.93
2017-08-08T05:52:13.751Z,6.63
2017-08-08T05:54:40.999Z,6.90
2017-08-08T05:57:08.200Z,6.10
2017-08-08T05:59:35.397Z,6.63
2017-08-08T06:02:02.591Z,5.67
2017-08-08T06:04:29.952Z,4.70
2017-08-08T06:06:57.172Z,5.00
2017-08-08T06:09:24.396Z,4.57
2017-08-08T06:11:51.598Z,3.30
2017-08-08T06:14:18.821Z,3.50
2017-08-08T06:16:46.029Z,3.63
2017-08-08T06:19:13.233Z,3.47
2017-08-08T06:21:40.473Z,3.60
2017-08-08T06:24:07.697Z,3.80
2017-08-08T06:26:34.934Z,3.20
2017-08-08T06:29:02.170Z,3.27
2017-08-08T06:31:29.396Z,3.20
2017-08-08T06:33:57.548Z,2.70
2017-08-08T06:36:24.777Z,2.70
2017-08-08T06:38:51.985Z,3.27
2017-08-08T06:41:20.147Z,3.27
2017-08-08T06:43:47.352Z,2.90
2017-08-08T06:46:14.554Z,3.20
2017-08-08T06:48:41.776Z,2.60
2017-08-08T06:51:08.977Z,2.53
2017-08-08T06:53:36.184Z,3.40
2017-08-08T06:56:03.388Z,2.60
2017-08-08T06:58:30.598Z,2.50
2017-08-08T07:00:57.831Z,2.60
2017-08-08T07:03:25.063Z,2.73
2017-08-08T07:05:52.282Z,2.30
2017-08-08T07:08:19.506Z,2.40
2017-08-08T07:10:46.705Z,2.00
2017-08-08T07:13:13.906Z,2.50
2017-08-08T07:15:41.127Z,2.50
2017-08-08T07:18:08.366Z,2.70
2017-08-08T07:20:35.568Z,2.17
2017-08-08T07:23:02.773Z,2.40
2017-08-08T07:25:30.912Z,2.80
2017-08-08T07:27:58.116Z,2.37
2017-08-08T07:30:27.285Z,2.30
2017-08-08T07:32:54.486Z,2.50
2017-08-08T07:35:21.688Z,2.37
2017-08-08T07:37:48.906Z,2.17
2017-08-08T07:40:16.142Z,3.03
2017-08-08T07:42:43.365Z,2.33
2017-08-08T07:45:11.517Z,2.40
2017-08-08T07:47:38.734Z,2.40
2017-08-08T07:50:05.936Z,2.10
2017-08-08T07:52:33.137Z,2.07
2017-08-08T07:55:00.356Z,2.47
2017-08-08T07:57:27.562Z,2.60
2017-08-08T07:59:54.756Z,2.50
2017-08-08T08:02:22.904Z,2.43
2017-08-08T08:04:50.096Z,2.27
2017-08-08T08:07:17.329Z,1.87
2017-08-08T08:09:44.530Z,2.13
2017-08-08T08:12:11.732Z,2.17
2017-08-08T08:14:38.937Z,2.20
2017-08-08T08:17:06.148Z,2.10
2017-08-08T08:19:33.368Z,2.33
2017-08-08T08:22:00.576Z,2.33
2017-08-08T08:24:27.780Z,2.10
2017-08-08T08:26:54.980Z,2.20
2017-08-08T08:29:22.180Z,1.83
2017-08-08T08:31:49.410Z,1.90
2017-08-08T08:34:17.552Z,2.13
2017-08-08T08:36:44.752Z,1.83
2017-08-08T08:39:11.952Z,1.90
2017-08-08T08:41:40.101Z,1.70
2017-08-08T08:44:07.321Z,1.83
2017-08-08T08:46:34.524Z,2.20
2017-08-08T08:49:01.721Z,2.07
2017-08-08T08:51:28.925Z,1.87
2017-08-08T08:53:56.129Z,2.10
2017-08-08T08:56:23.353Z,2.30
2017-08-08T08:58:50.549Z,1.70
2017-08-08T09:01:17.767Z,2.30
2017-08-08T09:03:44.973Z,1.83
2017-08-08T09:06:12.172Z,2.43
2017-08-08T09:08:39.392Z,1.83
2017-08-08T09:11:07.565Z,1.87
2017-08-08T09:13:34.760Z,2.20
2017-08-08T09:16:01.968Z,2.30
2017-08-08T09:18:29.169Z,1.50
2017-08-08T09:20:56.400Z,1.90
2017-08-08T09:23:23.597Z,2.20
2017-08-08T09:25:51.741Z,2.00
2017-08-08T09:28:18.944Z,2.90
2017-08-08T09:30:46.145Z,2.10
2017-08-08T09:33:13.365Z,1.93
2017-08-08T09:35:40.569Z,2.10
2017-08-08T09:38:07.772Z,2.00
2017-08-08T09:40:34.963Z,2.37
2017-08-08T09:43:02.173Z,1.70
2017-08-08T09:45:31.332Z,1.93
2017-08-08T09:47:58.541Z,2.00
2017-08-08T09:50:25.743Z,2.33
2017-08-08T09:52:52.946Z,1.90
2017-08-08T09:55:20.161Z,2.60
2017-08-08T09:57:47.379Z,2.00
2017-08-08T10:00:14.588Z,2.10
2017-08-08T10:02:42.543Z,2.40
2017-08-08T10:05:09.758Z,2.40
2017-08-08T10:07:36.974Z,2.00
2017-08-08T10:10:04.209Z,2.40
2017-08-08T10:12:31.412Z,2.30
2017-08-08T10:14:58.616Z,2.57
2017-08-08T10:17:25.816Z,2.23
2017-08-08T10:19:53.028Z,2.40
2017-08-08T10:22:20.257Z,2.20
2017-08-08T10:24:47.470Z,2.20
2017-08-08T10:27:14.676Z,2.20
2017-08-08T10:29:41.885Z,2.17
2017-08-08T10:32:09.084Z,2.13
2017-08-08T10:34:36.316Z,2.10
2017-08-08T10:37:03.528Z,2.10
2017-08-08T10:39:30.737Z,2.17
2017-08-08T10:41:57.944Z,2.03
2017-08-08T10:44:25.153Z,2.00
2017-08-08T10:46:54.304Z,2.00
2017-08-08T10:49:21.510Z,2.37
2017-08-08T10:51:48.785Z,2.13
2017-08-08T10:54:16.013Z,2.20
2017-08-08T10:56:43.221Z,1.90
2017-08-08T10:59:10.461Z,2.20
2017-08-08T11:01:37.665Z,2.13
2017-08-08T11:04:06.094Z,2.20
2017-08-08T11:06:33.674Z,1.83
2017-08-08T11:09:01.209Z,2.23
2017-08-08T11:11:28.701Z,2.40
2017-08-08T11:13:55.911Z,2.27
2017-08-08T11:16:23.119Z,2.20
2017-08-08T11:18:50.324Z,2.33
2017-08-08T11:21:17.533Z,2.40
2017-08-08T11:23:44.760Z,2.40
2017-08-08T11:26:11.988Z,2.27
2017-08-08T11:28:39.475Z,2.00
2017-08-08T11:31:06.677Z,2.03
2017-08-08T11:33:34.590Z,2.10
2017-08-08T11:36:02.521Z,2.30
2017-08-08T11:38:29.716Z,2.30
2017-08-08T11:40:56.942Z,2.10
2017-08-08T11:43:24.141Z,2.33
2017-08-08T11:45:51.350Z,2.30
2017-08-08T11:48:18.574Z,2.30
2017-08-08T11:50:46.710Z,2.23
2017-08-08T11:53:15.702Z,1.73
2017-08-08T11:55:42.933Z,2.50
2017-08-08T11:58:10.141Z,1.83
2017-08-08T12:00:37.353Z,2.80
2017-08-08T12:03:04.565Z,2.33
2017-08-08T12:05:32.128Z,3.03
2017-08-08T12:07:59.344Z,2.33
2017-08-08T12:10:26.549Z,2.90
2017-08-08T12:12:53.760Z,3.07
2017-08-08T12:15:20.990Z,2.70
2017-08-08T12:17:48.212Z,3.60
2017-08-08T12:20:16.389Z,4.10
2017-08-08T12:22:43.600Z,4.23
2017-08-08T12:25:10.802Z,4.40
2017-08-08T12:27:38.004Z,4.13
2017-08-08T12:30:05.034Z,4.60
2017-08-08T12:32:32.242Z,4.00
2017-08-08T12:34:59.450Z,4.23
2017-08-08T12:37:26.653Z,4.90
2017-08-08T12:39:53.861Z,5.47
2017-08-08T12:42:21.089Z,4.97
2017-08-08T12:44:48.288Z,4.80
2017-08-08T12:47:15.502Z,4.43
2017-08-08T12:49:44.656Z,3.90
2017-08-08T12:52:11.869Z,4.53
2017-08-08T12:54:39.075Z,3.97
2017-08-08T12:57:06.285Z,3.00
2017-08-08T12:59:33.504Z,6.27
2017-08-08T13:02:00.712Z,3.70
2017-08-08T13:04:27.921Z,4.03
2017-08-08T13:06:55.124Z,3.50
2017-08-08T13:09:22.330Z,3.47
2017-08-08T13:11:49.543Z,4.97
2017-08-08T13:14:16.745Z,5.13
2017-08-08T13:16:43.957Z,5.90
2017-08-08T13:19:11.160Z,5.03
2017-08-08T13:21:39.298Z,7.53
2017-08-08T13:24:06.516Z,5.10
2017-08-08T13:26:33.708Z,6.30
2017-08-08T13:29:00.916Z,6.90
2017-08-08T13:31:28.145Z,6.50
2017-08-08T13:33:56.284Z,6.63
2017-08-08T13:36:23.512Z,6.13
2017-08-08T13:38:50.712Z,5.80
2017-08-08T13:41:17.906Z,7.20
2017-08-08T13:43:45.113Z,5.00
2017-08-08T13:46:12.313Z,5.53
2017-08-08T13:48:41.493Z,5.63
2017-08-08T13:51:08.692Z,5.13
2017-08-08T13:53:35.893Z,5.67
2017-08-08T13:56:03.088Z,6.57
2017-08-08T13:58:30.306Z,5.53
2017-08-08T14:00:57.534Z,5.73
2017-08-08T14:03:24.737Z,4.63
2017-08-08T14:05:51.939Z,4.57
2017-08-08T14:08:20.089Z,4.03
2017-08-08T14:10:47.295Z,4.23
2017-08-08T14:13:14.524Z,4.20
2017-08-08T14:15:41.725Z,3.50
2017-08-08T14:18:08.929Z,3.70
2017-08-08T14:20:36.142Z,3.80
2017-08-08T14:23:03.346Z,4.70
2017-08-08T14:25:30.573Z,4.90
2017-08-08T14:27:57.774Z,6.00
2017-08-08T14:30:24.980Z,6.90
2017-08-08T14:32:52.188Z,6.47
2017-08-08T14:35:19.386Z,5.70
2017-08-08T14:37:49.614Z,9.10
2017-08-08T14:40:16.817Z,8.57
2017-08-08T14:42:44.017Z,8.43
2017-08-08T14:45:11.221Z,8.23
2017-08-08T14:47:38.429Z,8.27
2017-08-08T14:50:05.660Z,9.03
2017-08-08T14:52:32.871Z,9.07
2017-08-08T14:55:00.078Z,8.50
2017-08-08T14:57:27.292Z,8.07
2017-08-08T14:59:54.496Z,6.83
2017-08-08T15:02:21.727Z,8.00
2017-08-08T15:04:49.932Z,7.63
2017-08-08T15:07:17.124Z,6.73
2017-08-08T15:09:44.320Z,6.73
2017-08-08T15:12:11.530Z,5.30
2017-08-08T15:14:38.759Z,4.53
2017-08-08T15:17:05.972Z,4.20
2017-08-08T15:19:33.169Z,4.10
2017-08-08T15:22:01.318Z,3.20
2017-08-08T15:24:28.520Z,4.30
2017-08-08T15:26:55.744Z,3.20
2017-08-08T15:29:22.944Z,2.80
2017-08-08T15:31:50.155Z,2.27
2017-08-08T15:34:17.371Z,2.30
2017-08-08T15:36:44.597Z,2.40
2017-08-08T15:39:11.816Z,2.00
2017-08-08T15:41:39.027Z,1.77
2017-08-08T15:44:06.228Z,1.97
2017-08-08T15:46:33.448Z,2.30
2017-08-08T15:49:00.650Z,2.03
2017-08-08T15:51:27.885Z,1.53
2017-08-08T15:53:55.111Z,1.73
2017-08-08T15:56:22.332Z,1.60
2017-08-08T15:58:49.532Z,2.00
2017-08-08T16:01:16.727Z,2.07
2017-08-08T16:03:45.937Z,1.70
2017-08-08T16:06:13.145Z,1.70
2017-08-08T16:08:40.368Z,1.93
2017-08-08T16:11:07.574Z,1.90
2017-08-08T16:13:34.785Z,2.07
2017-08-08T16:16:01.981Z,2.43
2017-08-08T16:18:29.188Z,2.57
2017-08-08T16:20:56.409Z,2.17
2017-08-08T16:23:23.609Z,2.87
2017-08-08T16:25:50.813Z,3.13
2017-08-08T16:28:18.021Z,2.33
2017-08-08T16:30:45.223Z,2.70
2017-08-08T16:33:12.441Z,2.90
2017-08-08T16:35:39.657Z,2.30
2017-08-08T16:38:06.857Z,3.03
2017-08-08T16:40:34.078Z,3.60
2017-08-08T16:43:01.280Z,2.70
2017-08-08T16:45:30.444Z,3.30
2017-08-08T16:47:57.649Z,2.60
2017-08-08T16:50:24.851Z,2.70
2017-08-08T16:52:52.060Z,2.70
2017-08-08T16:55:19.276Z,3.10
2017-08-08T16:57:48.466Z,2.90
2017-08-08T17:00:15.672Z,3.47
2017-08-08T17:02:42.877Z,2.53
2017-08-08T17:05:10.112Z,2.83
2017-08-08T17:07:37.849Z,2.97
2017-08-08T17:10:05.080Z,2.70
2017-08-08T17:12:32.281Z,3.00
2017-08-08T17:14:59.481Z,3.00
2017-08-08T17:17:26.677Z,2.67
2017-08-08T17:19:53.881Z,3.03
2017-08-08T17:22:21.121Z,2.63
2017-08-08T17:24:48.339Z,3.07
2017-08-08T17:27:16.477Z,2.80
2017-08-08T17:29:43.680Z,2.60
2017-08-08T17:32:10.884Z,2.70
2017-08-08T17:34:38.117Z,2.43
2017-08-08T17:37:05.327Z,2.53
2017-08-08T17:39:32.548Z,2.23
2017-08-08T17:41:59.758Z,2.57
2017-08-08T17:44:26.969Z,2.60
2017-08-08T17:46:54.198Z,2.80
2017-08-08T17:49:22.337Z,2.97
2017-08-08T17:51:49.552Z,2.63
2017-08-08T17:54:16.760Z,2.90
2017-08-08T17:56:44.677Z,2.47
2017-08-08T17:59:11.892Z,3.13
2017-08-08T18:01:39.097Z,2.70
2017-08-08T18:04:06.296Z,3.10
2017-08-08T18:06:33.498Z,3.03
2017-08-08T18:09:00.701Z,3.23
2017-08-08T18:11:27.924Z,2.70
2017-08-08T18:13:55.121Z,2.50
2017-08-08T18:16:22.325Z,3.20
2017-08-08T18:18:49.524Z,3.47
2017-08-08T18:21:16.732Z,3.43
2017-08-08T18:23:43.968Z,3.00
2017-08-08T18:26:11.192Z,3.70
2017-08-08T18:28:38.400Z,3.13
2017-08-08T18:31:05.614Z,2.80
2017-08-08T18:33:32.820Z,3.30
2017-08-08T18:36:00.056Z,3.37
2017-08-08T18:38:27.280Z,2.97
2017-08-08T18:40:54.485Z,3.20
2017-08-08T18:43:22.628Z,3.47
2017-08-08T18:45:52.400Z,3.53
2017-08-08T18:48:19.620Z,3.07
2017-08-08T18:50:46.820Z,3.60
2017-08-08T18:53:14.020Z,3.10
2017-08-08T18:55:41.237Z,3.40
2017-08-08T18:58:08.436Z,3.97
2017-08-08T19:00:35.665Z,3.73
2017-08-08T19:03:02.878Z,3.40
2017-08-08T19:05:30.074Z,3.53
2017-08-08T19:07:57.301Z,3.20
2017-08-08T19:10:24.668Z,3.40
2017-08-08T19:12:52.816Z,3.20
2017-08-08T19:15:20.050Z,3.30
2017-08-08T19:17:47.263Z,3.27
2017-08-08T19:20:14.507Z,2.60
2017-08-08T19:22:41.746Z,3.50
2017-08-08T19:25:08.944Z,4.20
2017-08-08T19:27:36.445Z,4.07
2017-08-08T19:30:03.961Z,3.30
2017-08-08T19:32:31.452Z,4.70
2017-08-08T19:34:58.969Z,3.85
2017-08-08T19:37:26.469Z,3.80
2017-08-08T19:39:53.961Z,3.60
2017-08-08T19:42:21.454Z,3.75
2017-08-08T19:44:48.947Z,4.20
2017-08-08T19:47:16.460Z,3.75
2017-08-08T19:49:43.954Z,3.10
2017-08-08T19:52:11.449Z,2.40
2017-08-08T19:54:39.240Z,1.80
2017-08-08T19:57:06.872Z,2.65
2017-08-08T19:59:34.440Z,3.40
2017-08-08T20:02:01.757Z,2.80
2017-08-08T20:04:30.169Z,2.20
2017-08-08T20:06:57.725Z,2.87
2017-08-08T20:09:24.963Z,2.73
2017-08-08T20:11:52.160Z,2.53
2017-08-08T20:14:19.365Z,3.13
2017-08-08T20:16:46.876Z,2.50
2017-08-08T20:19:15.010Z,2.60
2017-08-08T20:21:42.246Z,1.93
2017-08-08T20:24:09.480Z,2.13
2017-08-08T20:26:36.744Z,1.70
2017-08-08T20:29:04.248Z,1.62
2017-08-08T20:31:31.481Z,1.60
2017-08-08T20:33:59.036Z,1.55
2017-08-08T20:36:26.543Z,1.45
2017-08-08T20:38:54.077Z,1.83
2017-08-08T20:41:21.572Z,1.90
2017-08-08T20:43:49.081Z,1.85
2017-08-08T20:46:16.423Z,1.57
2017-08-08T20:48:43.625Z,1.60
2017-08-08T20:51:11.114Z,1.75
2017-08-08T20:53:38.635Z,1.90
2017-08-08T20:56:05.865Z,2.53
2017-08-08T20:58:33.357Z,1.70
2017-08-08T21:01:01.509Z,1.80
2017-08-08T21:03:28.742Z,1.97
2017-08-08T21:05:55.948Z,2.00
2017-08-08T21:08:23.168Z,2.50
2017-08-08T21:10:50.660Z,2.17
2017-08-08T21:13:17.874Z,2.10
2017-08-08T21:15:45.090Z,2.00
2017-08-08T21:18:12.296Z,2.00
2017-08-08T21:20:39.517Z,2.27
2017-08-08T21:23:06.777Z,1.90
2017-08-08T21:25:33.996Z,2.30
2017-08-08T21:28:01.209Z,2.57
2017-08-08T21:30:28.420Z,1.80
2017-08-08T21:32:55.934Z,2.40
2017-08-08T21:35:23.142Z,2.30
2017-08-08T21:37:50.636Z,2.03
2017-08-08T21:40:17.841Z,1.90
2017-08-08T21:42:45.045Z,1.90
2017-08-08T21:45:12.269Z,2.07
2017-08-08T21:47:39.762Z,1.40
2017-08-08T21:50:06.960Z,1.50
2017-08-08T21:52:34.192Z,1.60
2017-08-08T21:55:01.680Z,1.80
2017-08-08T21:57:28.901Z,1.57
2017-08-08T21:59:56.400Z,1.75
2017-08-08T22:02:23.926Z,1.70
2017-08-08T22:04:51.417Z,1.67
2017-08-08T22:07:18.624Z,1.93
2017-08-08T22:09:45.849Z,1.67
2017-08-08T22:12:13.106Z,1.40
2017-08-08T22:14:40.305Z,1.63
2017-08-08T22:17:07.524Z,1.40
2017-08-08T22:19:34.728Z,1.30
2017-08-08T22:22:01.953Z,1.60
2017-08-08T22:24:30.105Z,1.30
2017-08-08T22:26:57.319Z,1.20
2017-08-08T22:29:24.532Z,1.40
2017-08-08T22:31:51.728Z,1.07
2017-08-08T22:34:19.348Z,1.33
2017-08-08T22:36:46.556Z,1.07
2017-08-08T22:39:14.049Z,1.10
2017-08-08T22:41:41.305Z,1.40
2017-08-08T22:44:08.513Z,1.00
2017-08-08T22:46:35.748Z,1.30
2017-08-08T22:49:02.954Z,1.40
2017-08-08T22:51:30.169Z,1.20
2017-08-08T22:53:59.360Z,1.20
2017-08-08T22:56:26.844Z,1.10
2017-08-08T22:58:54.064Z,1.83
2017-08-08T23:01:21.656Z,1.40
2017-08-08T23:03:49.136Z,1.48
2017-08-08T23:06:16.332Z,1.53
2017-08-08T23:08:44.508Z,1.40
2017-08-08T23:11:11.729Z,1.70
2017-08-08T23:13:38.928Z,1.50
2017-08-08T23:16:06.123Z,1.80
2017-08-08T23:18:33.325Z,1.50
2017-08-08T23:21:00.530Z,1.47
2017-08-08T23:23:27.748Z,1.40
2017-08-08T23:25:55.905Z,1.60
2017-08-08T23:28:23.110Z,1.50
2017-08-08T23:30:50.330Z,1.67
2017-08-08T23:33:17.528Z,1.43
2017-08-08T23:35:44.761Z,1.50
2017-08-08T23:38:11.965Z,1.57
2017-08-08T23:40:39.165Z,1.60
2017-08-08T23:43:06.364Z,1.73
2017-08-08T23:45:33.563Z,2.07
2017-08-08T23:48:02.740Z,1.80
2017-08-08T23:50:29.955Z,1.83
2017-08-08T23:52:57.158Z,1.80
2017-08-08T23:55:24.361Z,1.63
2017-08-08T23:57:51.565Z,2.10
